Terminal Aerodrome Forecast
Issued by NWS Goodland, KS

Home | Current Version | Previous Version | Text Only | Print | Product List | Glossary On
Versions: 1 2 3 4 5 6 7 8 9 10 11 12 13 14 15 16 17 18
000
FTUS43 KGLD 291720
TAFGLD
TAF
KGLD 291720Z 2918/3018 01016G24KT 6SM -RA BKN008
     FM292000 36022G30KT P6SM -SHRA OVC020
     FM292300 35013G18KT P6SM VCSH SCT015 BKN035
     FM300100 35010KT P6SM BKN035
     FM300800 33009KT 3SM BR SCT010 BKN020
     FM301500 34009KT P6SM FEW080=

USA.gov is the U.S. government's official web portal to all federal, state and local government web resources and services.